createdAt,value
2019-06-08T00:01:54.029Z,54.54
2019-06-08T00:04:22.906Z,54.79
2019-06-08T00:06:51.771Z,55.00
2019-06-08T00:09:20.940Z,54.96
2019-06-08T00:11:50.865Z,55.06
2019-06-08T00:14:19.600Z,55.07
2019-06-08T00:16:48.229Z,55.05
2019-06-08T00:19:17.381Z,55.20
2019-06-08T00:21:46.021Z,54.52
2019-06-08T00:24:15.729Z,54.75
2019-06-08T00:26:44.371Z,55.00
2019-06-08T00:29:14.109Z,55.28
2019-06-08T00:31:42.756Z,55.15
2019-06-08T00:34:11.298Z,54.96
2019-06-08T00:36:39.942Z,54.98
2019-06-08T00:39:09.199Z,54.82
2019-06-08T00:41:37.832Z,54.46
2019-06-08T00:44:06.649Z,54.42
2019-06-08T00:46:35.179Z,54.39
2019-06-08T00:49:03.909Z,54.39
2019-06-08T00:51:32.494Z,54.13
2019-06-08T00:54:01.122Z,53.96
2019-06-08T00:56:30.023Z,53.94
2019-06-08T00:58:58.828Z,53.44
2019-06-08T01:01:28.249Z,53.43
2019-06-08T01:03:57.005Z,53.33
2019-06-08T01:06:27.391Z,52.88
2019-06-08T01:08:56.295Z,52.76
2019-06-08T01:11:24.969Z,52.25
2019-06-08T01:13:53.540Z,51.50
2019-06-08T01:16:22.868Z,51.54
2019-06-08T01:18:51.638Z,51.31
2019-06-08T01:21:21.276Z,51.18
2019-06-08T01:23:49.942Z,51.31
2019-06-08T01:26:19.708Z,50.80
2019-06-08T01:28:48.684Z,50.82
2019-06-08T01:31:17.353Z,50.67
2019-06-08T01:33:45.886Z,50.31
2019-06-08T01:36:14.442Z,50.02
2019-06-08T01:38:43.076Z,49.91
2019-06-08T01:41:11.734Z,49.34
2019-06-08T01:43:40.292Z,49.41
2019-06-08T01:46:08.950Z,49.72
2019-06-08T01:48:37.686Z,49.69
2019-06-08T01:51:06.250Z,49.92
2019-06-08T01:53:34.877Z,50.32
2019-06-08T01:56:03.619Z,50.44
2019-06-08T01:58:33.418Z,50.56
2019-06-08T02:01:02.320Z,50.52
2019-06-08T02:03:30.852Z,50.28
2019-06-08T02:05:59.433Z,50.66
2019-06-08T02:08:28.611Z,50.20
2019-06-08T02:10:57.211Z,50.03
2019-06-08T02:13:26.870Z,49.71
2019-06-08T02:15:55.566Z,49.62
2019-06-08T02:18:37.713Z,49.23
2019-06-08T02:20:54.764Z,49.11
2019-06-08T02:23:23.283Z,49.37
2019-06-08T02:25:51.816Z,49.46
2019-06-08T02:28:20.539Z,49.33
2019-06-08T02:30:49.272Z,49.27
2019-06-08T02:33:17.886Z,48.98
2019-06-08T02:35:46.447Z,49.34
2019-06-08T02:38:15.180Z,48.43
2019-06-08T02:40:43.720Z,48.59
2019-06-08T02:43:12.674Z,48.51
2019-06-08T02:45:41.451Z,47.97
2019-06-08T02:48:10.077Z,48.06
2019-06-08T02:51:05.502Z,48.27
2019-06-08T02:53:36.148Z,48.68
2019-06-08T02:56:04.888Z,48.92
2019-06-08T02:58:35.766Z,49.12
2019-06-08T03:01:04.650Z,49.23
2019-06-08T03:03:35.723Z,49.43
2019-06-08T03:06:04.865Z,49.57
2019-06-08T03:08:36.292Z,49.78
2019-06-08T03:11:05.094Z,49.36
2019-06-08T03:13:35.620Z,49.52
2019-06-08T03:16:04.511Z,49.44
2019-06-08T03:18:33.684Z,49.58
2019-06-08T03:21:02.572Z,49.58
2019-06-08T03:23:31.944Z,49.67
2019-06-08T03:26:00.852Z,49.72
2019-06-08T03:28:29.462Z,50.17
2019-06-08T03:30:57.989Z,50.24
2019-06-08T03:33:26.718Z,50.46
2019-06-08T03:35:58.227Z,50.58
2019-06-08T03:38:25.749Z,50.65
2019-06-08T03:40:54.331Z,50.67
2019-06-08T03:43:22.852Z,50.52
2019-06-08T03:45:51.410Z,50.21
2019-06-08T03:48:20.053Z,50.41
2019-06-08T03:50:48.590Z,50.85
2019-06-08T03:53:17.231Z,51.07
2019-06-08T03:55:47.259Z,51.41
2019-06-08T03:58:15.896Z,51.81
2019-06-08T04:00:44.566Z,52.13
2019-06-08T04:03:13.122Z,52.66
2019-06-08T04:05:42.690Z,52.96
2019-06-08T04:08:12.304Z,53.20
2019-06-08T04:10:42.142Z,53.56
2019-06-08T04:13:11.877Z,53.64
2019-06-08T04:15:42.106Z,54.57
2019-06-08T04:18:11.014Z,54.47
2019-06-08T04:20:40.316Z,54.83
2019-06-08T04:23:09.468Z,54.76
2019-06-08T04:25:38.417Z,54.84
2019-06-08T04:28:07.473Z,54.93
2019-06-08T04:30:36.090Z,54.55
2019-06-08T04:33:04.622Z,54.60
2019-06-08T04:35:33.150Z,54.59
2019-06-08T04:38:01.784Z,54.60
2019-06-08T04:40:30.333Z,53.98
2019-06-08T04:42:58.911Z,54.08
2019-06-08T04:45:27.532Z,53.41
2019-06-08T04:47:56.189Z,53.62
2019-06-08T04:50:24.819Z,53.37
2019-06-08T04:52:53.354Z,53.84
2019-06-08T04:55:22.008Z,54.05
2019-06-08T04:57:50.952Z,53.71
2019-06-08T05:00:19.880Z,53.25
2019-06-08T05:02:50.843Z,52.53
2019-06-08T05:05:18.956Z,52.45
2019-06-08T05:07:48.484Z,52.57
2019-06-08T05:10:18.623Z,52.25
2019-06-08T05:12:47.718Z,52.25
2019-06-08T05:15:17.250Z,52.31
2019-06-08T05:17:47.382Z,52.17
2019-06-08T05:20:16.499Z,52.47
2019-06-08T05:22:45.541Z,52.29
2019-06-08T05:25:14.657Z,52.29
2019-06-08T05:27:43.394Z,52.46
2019-06-08T05:30:12.426Z,52.44
2019-06-08T05:32:41.475Z,52.16
2019-06-08T05:35:10.415Z,52.18
2019-06-08T05:37:39.450Z,52.08
2019-06-08T05:40:08.296Z,51.61
2019-06-08T05:42:36.858Z,51.69
2019-06-08T05:45:06.310Z,51.59
2019-06-08T05:47:35.198Z,51.11
2019-06-08T05:50:04.800Z,51.39
2019-06-08T05:52:33.465Z,50.92
2019-06-08T05:55:02.233Z,50.82
2019-06-08T05:57:30.810Z,51.07
2019-06-08T05:59:59.344Z,51.12
2019-06-08T06:02:27.904Z,51.23
2019-06-08T06:04:56.551Z,51.11
2019-06-08T06:07:25.089Z,51.51
2019-06-08T06:09:53.737Z,51.52
2019-06-08T06:12:22.274Z,52.00
2019-06-08T06:14:51.261Z,51.71
2019-06-08T06:17:20.131Z,51.56
2019-06-08T06:19:49.247Z,51.93
2019-06-08T06:22:17.927Z,52.03
2019-06-08T06:24:47.625Z,51.83
2019-06-08T06:27:16.348Z,51.79
2019-06-08T06:29:45.462Z,51.92
2019-06-08T06:32:14.129Z,51.89
2019-06-08T06:34:43.882Z,51.70
2019-06-08T06:37:12.811Z,51.58
2019-06-08T06:39:41.913Z,51.71
2019-06-08T06:42:10.596Z,51.25
2019-06-08T06:44:39.448Z,51.33
2019-06-08T06:47:08.229Z,51.61
2019-06-08T06:49:36.959Z,51.67
2019-06-08T06:52:05.503Z,51.51
2019-06-08T06:54:34.151Z,51.46
2019-06-08T06:57:02.910Z,51.71
2019-06-08T06:59:31.801Z,51.78
2019-06-08T07:02:00.459Z,51.75
2019-06-08T07:04:28.982Z,51.91
2019-06-08T07:06:57.615Z,51.57
2019-06-08T07:09:26.309Z,51.28
2019-06-08T07:11:56.651Z,51.28
2019-06-08T07:14:25.460Z,50.98
2019-06-08T07:16:54.292Z,50.74
2019-06-08T07:19:22.830Z,50.64
2019-06-08T07:21:53.065Z,50.94
2019-06-08T07:24:22.058Z,51.10
2019-06-08T07:26:50.583Z,51.28
2019-06-08T07:29:19.204Z,51.37
2019-06-08T07:31:48.612Z,51.67
2019-06-08T07:34:18.579Z,51.72
2019-06-08T07:36:48.440Z,51.71
2019-06-08T07:39:17.650Z,51.73
2019-06-08T07:41:47.419Z,51.88
2019-06-08T07:44:16.714Z,52.31
2019-06-08T07:46:45.348Z,52.57
2019-06-08T07:49:13.899Z,52.34
2019-06-08T07:51:57.791Z,52.73
2019-06-08T07:54:13.090Z,52.59
2019-06-08T07:56:41.715Z,52.60
2019-06-08T07:59:10.190Z,52.39
2019-06-08T08:01:38.818Z,52.46
2019-06-08T08:04:07.443Z,52.29
2019-06-08T08:06:36.010Z,52.26
2019-06-08T08:09:05.916Z,51.65
2019-06-08T08:11:34.611Z,51.53
2019-06-08T08:14:03.430Z,51.11
2019-06-08T08:16:32.192Z,50.11
2019-06-08T08:19:00.831Z,50.32
2019-06-08T08:21:29.684Z,49.69
2019-06-08T08:24:01.370Z,48.68
2019-06-08T08:26:31.279Z,49.14
2019-06-08T08:29:02.762Z,48.94
2019-06-08T08:31:29.971Z,49.27
2019-06-08T08:34:05.336Z,49.53
2019-06-08T08:36:32.512Z,50.04
2019-06-08T08:39:02.365Z,49.55
2019-06-08T08:41:30.201Z,49.29
2019-06-08T08:44:04.187Z,49.24
2019-06-08T08:46:29.257Z,49.32
2019-06-08T08:49:05.930Z,49.38
2019-06-08T08:51:28.253Z,49.71
2019-06-08T08:54:02.020Z,49.56
2019-06-08T08:56:27.956Z,48.91
2019-06-08T08:58:59.257Z,49.16
2019-06-08T09:01:28.913Z,49.05
2019-06-08T09:04:01.647Z,48.35
2019-06-08T09:06:28.351Z,48.06
2019-06-08T09:09:00.826Z,48.18
2019-06-08T09:11:28.912Z,47.82
2019-06-08T09:14:01.408Z,47.80
2019-06-08T09:16:28.805Z,47.74
2019-06-08T09:19:01.197Z,47.08
2019-06-08T09:21:28.295Z,47.42
2019-06-08T09:24:00.713Z,47.66
2019-06-08T09:26:31.065Z,47.89
2019-06-08T09:28:58.479Z,47.66
2019-06-08T09:31:28.058Z,47.66
2019-06-08T09:34:07.483Z,46.95
2019-06-08T09:36:28.804Z,46.40
2019-06-08T09:39:00.941Z,46.06
2019-06-08T09:41:31.266Z,45.79
2019-06-08T09:44:02.152Z,45.81
2019-06-08T09:46:29.333Z,45.67
2019-06-08T09:49:03.680Z,45.88
2019-06-08T09:51:28.670Z,45.88
2019-06-08T09:54:00.840Z,46.37
2019-06-08T09:56:28.376Z,46.71
2019-06-08T09:59:01.289Z,46.01
2019-06-08T10:01:28.668Z,45.52
2019-06-08T10:04:00.830Z,45.96
2019-06-08T10:06:27.971Z,45.95
2019-06-08T10:08:56.504Z,45.82
2019-06-08T10:11:27.910Z,46.25
2019-06-08T10:13:59.388Z,46.01
2019-06-08T10:16:27.959Z,46.09
2019-06-08T10:18:59.961Z,46.41
2019-06-08T10:21:28.408Z,46.33
2019-06-08T10:24:00.578Z,46.33
2019-06-08T10:26:28.140Z,46.61
2019-06-08T10:29:00.286Z,46.03
2019-06-08T10:31:36.506Z,46.35
2019-06-08T10:34:00.544Z,46.58
2019-06-08T10:36:28.637Z,46.36
2019-06-08T10:39:01.783Z,46.89
2019-06-08T10:41:27.985Z,46.71
2019-06-08T10:43:57.170Z,46.59
2019-06-08T10:46:25.890Z,46.50
2019-06-08T10:48:54.580Z,46.54
2019-06-08T10:51:23.203Z,46.95
2019-06-08T10:53:53.065Z,46.67
2019-06-08T10:56:22.300Z,46.76
2019-06-08T10:58:50.834Z,46.35
2019-06-08T11:01:19.362Z,46.44
2019-06-08T11:03:48.864Z,45.96
2019-06-08T11:06:18.806Z,45.64
2019-06-08T11:08:47.650Z,44.50
2019-06-08T11:11:19.471Z,44.91
2019-06-08T11:13:50.168Z,44.62
2019-06-08T11:16:18.149Z,45.08
2019-06-08T11:18:50.826Z,45.05
2019-06-08T11:21:18.790Z,44.84
2019-06-08T11:24:04.710Z,44.48
2019-06-08T11:26:23.895Z,44.70
2019-06-08T11:28:51.245Z,44.96
2019-06-08T11:31:19.870Z,45.12
2019-06-08T11:33:49.108Z,44.69
2019-06-08T11:36:18.904Z,44.26
2019-06-08T11:38:48.059Z,43.99
2019-06-08T11:41:19.040Z,43.03
2019-06-08T11:43:47.237Z,43.54
2019-06-08T11:46:19.014Z,43.64
2019-06-08T11:48:48.363Z,43.75
2019-06-08T11:51:16.745Z,43.78
2019-06-08T11:53:48.208Z,44.72
2019-06-08T11:56:18.119Z,44.57
2019-06-08T11:58:48.584Z,44.68
2019-06-08T12:01:18.565Z,44.20
2019-06-08T12:03:48.345Z,44.40
2019-06-08T12:06:18.559Z,44.50
2019-06-08T12:08:47.386Z,44.55
2019-06-08T12:11:19.800Z,44.75
2019-06-08T12:13:47.380Z,45.01
2019-06-08T12:16:21.639Z,44.41
2019-06-08T12:18:49.269Z,44.19
2019-06-08T12:21:18.550Z,44.00
2019-06-08T12:23:47.343Z,43.25
2019-06-08T12:26:15.991Z,42.86
2019-06-08T12:28:44.632Z,42.65
2019-06-08T12:31:17.101Z,42.31
2019-06-08T12:33:43.582Z,42.36
2019-06-08T12:36:15.204Z,41.41
2019-06-08T12:38:42.855Z,41.34
2019-06-08T12:41:12.741Z,41.64
2019-06-08T12:43:41.840Z,41.44
2019-06-08T12:46:12.546Z,40.92
2019-06-08T12:48:40.902Z,40.82
2019-06-08T12:51:11.403Z,41.86
2019-06-08T12:53:40.096Z,41.79
2019-06-08T12:56:10.621Z,41.64
2019-06-08T12:58:39.411Z,41.25
2019-06-08T13:01:09.484Z,40.24
2019-06-08T13:03:38.579Z,40.24
2019-06-08T13:06:09.253Z,40.17
2019-06-08T13:08:38.051Z,40.09
2019-06-08T13:11:09.043Z,41.41
2019-06-08T13:13:40.654Z,41.34
2019-06-08T13:16:10.478Z,41.26
2019-06-08T13:18:40.842Z,39.23
2019-06-08T13:21:22.145Z,38.45
2019-06-08T13:23:41.294Z,38.30
2019-06-08T13:26:11.490Z,37.70
2019-06-08T13:28:40.966Z,34.73
2019-06-08T13:31:11.687Z,35.00
2019-06-08T13:33:40.013Z,34.71
2019-06-08T13:36:08.655Z,35.64
2019-06-08T13:38:38.046Z,34.39
2019-06-08T13:41:08.737Z,33.89
2019-06-08T13:43:40.378Z,34.07
2019-06-08T13:46:08.236Z,33.50
2019-06-08T13:48:37.598Z,32.50
2019-06-08T13:51:08.424Z,32.50
2019-06-08T13:53:38.373Z,34.25
2019-06-08T13:56:07.915Z,34.54
2019-06-08T13:58:38.227Z,32.48
2019-06-08T14:01:10.005Z,32.45
2019-06-08T14:03:38.151Z,32.86
2019-06-08T14:06:07.666Z,32.64
2019-06-08T14:08:38.450Z,32.40
2019-06-08T14:11:08.261Z,33.30
2019-06-08T14:13:38.089Z,33.34
2019-06-08T14:16:08.866Z,33.34
2019-06-08T14:18:38.611Z,33.66
2019-06-08T14:21:07.330Z,32.32
2019-06-08T14:23:38.701Z,32.69
2019-06-08T14:26:08.292Z,32.22
2019-06-08T14:28:38.064Z,35.66
2019-06-08T14:31:08.291Z,34.67
2019-06-08T14:33:38.140Z,36.24
2019-06-08T14:36:07.980Z,36.24
2019-06-08T14:38:41.060Z,37.06
2019-06-08T14:41:07.720Z,37.34
2019-06-08T14:43:38.196Z,36.97
2019-06-08T14:46:08.071Z,37.37
2019-06-08T14:48:37.924Z,35.27
2019-06-08T14:51:08.766Z,35.27
2019-06-08T14:53:38.698Z,36.89
2019-06-08T14:56:08.880Z,38.14
2019-06-08T14:58:38.630Z,38.16
2019-06-08T15:01:07.996Z,37.03
2019-06-08T15:03:38.076Z,35.38
2019-06-08T15:06:08.153Z,34.61
2019-06-08T15:08:37.033Z,34.18
2019-06-08T15:11:07.919Z,34.49
2019-06-08T15:13:37.358Z,34.03
2019-06-08T15:16:08.243Z,34.62
2019-06-08T15:18:38.578Z,35.22
2019-06-08T15:21:07.942Z,35.36
2019-06-08T15:23:36.649Z,35.92
2019-06-08T15:26:19.780Z,36.33
2019-06-08T15:28:36.450Z,37.90
2019-06-08T15:31:08.159Z,37.68
2019-06-08T15:33:38.199Z,38.75
2019-06-08T15:36:08.341Z,40.24
2019-06-08T15:38:38.056Z,42.09
2019-06-08T15:41:07.826Z,50.21
2019-06-08T15:43:39.967Z,57.31
2019-06-08T15:46:08.504Z,59.43
2019-06-08T15:48:38.179Z,58.97
2019-06-08T15:51:07.887Z,58.27
2019-06-08T15:53:37.811Z,58.75
2019-06-08T15:56:08.384Z,58.92
2019-06-08T15:58:40.153Z,58.03
2019-06-08T16:01:07.977Z,55.71
2019-06-08T16:03:36.602Z,57.42
2019-06-08T16:06:05.347Z,57.37
2019-06-08T16:08:37.529Z,57.73
2019-06-08T16:11:04.485Z,63.44
2019-06-08T16:13:33.094Z,69.47
2019-06-08T16:16:01.684Z,70.52
2019-06-08T16:18:31.644Z,70.93
2019-06-08T16:21:00.281Z,67.97
2019-06-08T16:23:29.930Z,67.27
2019-06-08T16:25:58.585Z,67.30
2019-06-08T16:28:27.751Z,67.22
2019-06-08T16:30:56.342Z,67.48
2019-06-08T16:33:24.964Z,67.90
2019-06-08T16:35:53.488Z,67.31
2019-06-08T16:38:22.304Z,66.88
2019-06-08T16:40:50.914Z,66.36
2019-06-08T16:43:19.438Z,65.31
2019-06-08T16:45:47.987Z,65.85
2019-06-08T16:48:16.502Z,65.09
2019-06-08T16:50:45.025Z,63.07
2019-06-08T16:53:13.668Z,63.84
2019-06-08T16:55:42.295Z,64.28
2019-06-08T16:58:10.918Z,64.24
2019-06-08T17:00:42.061Z,65.08
2019-06-08T17:03:10.125Z,63.81
2019-06-08T17:05:38.952Z,62.21
2019-06-08T17:08:07.592Z,59.96
2019-06-08T17:10:36.915Z,59.03
2019-06-08T17:13:05.553Z,59.66
2019-06-08T17:15:34.313Z,60.72
2019-06-08T17:18:03.066Z,60.58
2019-06-08T17:20:32.060Z,60.70
2019-06-08T17:23:00.639Z,59.80
2019-06-08T17:25:30.273Z,59.90
2019-06-08T17:27:59.186Z,59.48
2019-06-08T17:30:27.726Z,59.40
2019-06-08T17:32:56.240Z,58.93
2019-06-08T17:35:24.976Z,59.08
2019-06-08T17:37:53.514Z,59.53
2019-06-08T17:40:22.158Z,59.84
2019-06-08T17:42:50.767Z,60.87
2019-06-08T17:45:19.517Z,63.24
2019-06-08T17:47:48.024Z,64.10
2019-06-08T17:50:17.530Z,63.63
2019-06-08T17:52:46.074Z,63.40
2019-06-08T17:55:14.793Z,64.10
2019-06-08T17:57:53.005Z,64.33
2019-06-08T18:00:14.937Z,64.42
2019-06-08T18:02:45.363Z,63.82
2019-06-08T18:05:14.179Z,63.53
2019-06-08T18:07:44.321Z,63.17
2019-06-08T18:10:13.552Z,62.86
2019-06-08T18:12:44.323Z,63.73
2019-06-08T18:15:13.427Z,63.52
2019-06-08T18:17:43.733Z,63.63
2019-06-08T18:20:13.427Z,64.12
2019-06-08T18:22:44.355Z,64.68
2019-06-08T18:25:14.169Z,65.34
2019-06-08T18:28:00.840Z,65.21
2019-06-08T18:30:15.571Z,65.70
2019-06-08T18:32:48.374Z,65.53
2019-06-08T18:35:18.262Z,65.49
2019-06-08T18:37:49.890Z,65.09
2019-06-08T18:40:18.835Z,65.60
2019-06-08T18:42:48.752Z,65.88
2019-06-08T18:45:18.278Z,66.19
2019-06-08T18:47:48.347Z,66.58
2019-06-08T18:50:17.520Z,66.19
2019-06-08T18:52:49.432Z,66.11
2019-06-08T18:55:18.230Z,66.44
2019-06-08T18:57:48.960Z,66.35
2019-06-08T19:00:22.165Z,66.35
2019-06-08T19:02:54.489Z,66.20
2019-06-08T19:05:21.547Z,66.43
2019-06-08T19:07:52.076Z,66.11
2019-06-08T19:10:31.470Z,66.29
2019-06-08T19:13:00.209Z,66.07
2019-06-08T19:15:33.341Z,66.31
2019-06-08T19:18:02.065Z,66.01
2019-06-08T19:20:30.709Z,65.49
2019-06-08T19:22:59.783Z,65.71
2019-06-08T19:25:28.290Z,65.27
2019-06-08T19:27:57.930Z,65.35
2019-06-08T19:30:28.186Z,65.09
2019-06-08T19:32:57.861Z,64.33
2019-06-08T19:35:27.386Z,63.98
2019-06-08T19:37:58.129Z,64.26
2019-06-08T19:40:27.188Z,64.13
2019-06-08T19:43:00.057Z,64.06
2019-06-08T19:45:27.666Z,63.54
2019-06-08T19:47:57.716Z,63.65
2019-06-08T19:50:28.641Z,63.63
2019-06-08T19:52:57.994Z,63.56
2019-06-08T19:55:26.800Z,64.00
2019-06-08T19:57:57.017Z,64.23
2019-06-08T20:00:27.920Z,64.30
2019-06-08T20:02:58.229Z,64.47
2019-06-08T20:05:28.548Z,64.31
2019-06-08T20:07:57.663Z,64.34
2019-06-08T20:10:28.056Z,64.04
2019-06-08T20:12:57.594Z,63.39
2019-06-08T20:15:26.470Z,63.45
2019-06-08T20:17:57.278Z,63.39
2019-06-08T20:20:27.715Z,63.45
2019-06-08T20:22:58.357Z,63.51
2019-06-08T20:25:27.896Z,63.24
2019-06-08T20:27:58.668Z,63.35
2019-06-08T20:30:28.170Z,62.49
2019-06-08T20:32:57.648Z,62.40
2019-06-08T20:35:28.058Z,62.66
2019-06-08T20:37:57.807Z,62.32
2019-06-08T20:40:27.980Z,62.17
2019-06-08T20:42:57.778Z,61.87
2019-06-08T20:45:28.116Z,62.06
2019-06-08T20:47:58.513Z,62.12
2019-06-08T20:50:27.248Z,62.30
2019-06-08T20:52:57.638Z,62.43
2019-06-08T20:55:28.337Z,62.83
2019-06-08T20:57:57.552Z,62.93
2019-06-08T21:00:26.253Z,63.01
2019-06-08T21:02:57.941Z,63.33
2019-06-08T21:05:27.571Z,63.46
2019-06-08T21:07:56.394Z,63.85
2019-06-08T21:10:28.129Z,63.42
2019-06-08T21:12:58.776Z,63.69
2019-06-08T21:15:27.553Z,63.80
2019-06-08T21:17:56.187Z,63.98
2019-06-08T21:20:25.228Z,63.94
2019-06-08T21:22:55.032Z,63.88
2019-06-08T21:25:24.202Z,64.01
2019-06-08T21:27:54.069Z,64.19
2019-06-08T21:30:24.678Z,64.52
2019-06-08T21:32:56.091Z,65.01
2019-06-08T21:35:23.962Z,65.52
2019-06-08T21:37:53.385Z,65.26
2019-06-08T21:40:22.927Z,65.35
2019-06-08T21:42:53.541Z,65.77
2019-06-08T21:45:21.920Z,65.82
2019-06-08T21:47:51.730Z,66.06
2019-06-08T21:50:21.050Z,66.27
2019-06-08T21:52:51.577Z,66.80
2019-06-08T21:55:20.107Z,66.99
2019-06-08T21:57:51.128Z,67.12
2019-06-08T22:00:38.121Z,67.24
2019-06-08T22:02:51.754Z,67.30
2019-06-08T22:05:20.687Z,67.09
2019-06-08T22:07:50.082Z,67.23
2019-06-08T22:10:18.869Z,67.47
2019-06-08T22:12:48.334Z,67.42
2019-06-08T22:15:18.243Z,68.23
2019-06-08T22:17:47.596Z,68.31
2019-06-08T22:20:18.690Z,68.42
2019-06-08T22:22:47.431Z,68.29
2019-06-08T22:25:17.579Z,68.79
2019-06-08T22:27:46.371Z,68.77
2019-06-08T22:30:32.336Z,68.62
2019-06-08T22:32:47.388Z,69.04
2019-06-08T22:35:16.178Z,69.17
2019-06-08T22:37:44.812Z,69.64
2019-06-08T22:40:13.572Z,69.61
2019-06-08T22:42:42.234Z,70.03
2019-06-08T22:45:11.186Z,70.80
2019-06-08T22:47:39.731Z,70.07
2019-06-08T22:50:08.749Z,69.94
2019-06-08T22:52:38.178Z,70.18
2019-06-08T22:55:10.476Z,70.20
2019-06-08T22:57:37.891Z,70.19
2019-06-08T23:00:14.255Z,70.56
2019-06-08T23:02:38.526Z,71.07
2019-06-08T23:05:09.884Z,71.46
2019-06-08T23:07:39.375Z,71.52
2019-06-08T23:10:09.102Z,71.88
2019-06-08T23:12:38.261Z,71.87
2019-06-08T23:15:07.900Z,71.58
2019-06-08T23:17:38.597Z,72.05
2019-06-08T23:20:08.744Z,72.15
2019-06-08T23:22:38.468Z,72.35
2019-06-08T23:25:09.312Z,72.52
2019-06-08T23:27:38.392Z,72.63
2019-06-08T23:30:10.299Z,72.89
2019-06-08T23:32:38.730Z,73.54
2019-06-08T23:35:09.580Z,73.39
2019-06-08T23:37:38.370Z,74.14
2019-06-08T23:40:07.670Z,73.77
2019-06-08T23:42:38.420Z,73.52
2019-06-08T23:45:10.324Z,72.78
2019-06-08T23:47:38.689Z,72.70
2019-06-08T23:50:09.982Z,72.67
2019-06-08T23:52:38.420Z,73.12
2019-06-08T23:55:10.569Z,72.71
2019-06-08T23:57:38.149Z,72.91
